createdAt,value
2018-11-28T00:04:44.723Z,8.6
2018-11-28T00:09:41.701Z,8.1
2018-11-28T00:14:38.637Z,8.6
2018-11-28T00:19:35.527Z,8.6
2018-11-28T00:24:32.360Z,8.6
2018-11-28T00:29:29.025Z,8.6
2018-11-28T00:34:25.954Z,8.6
2018-11-28T00:39:22.838Z,8.6
2018-11-28T00:44:19.667Z,8.6
2018-11-28T00:49:16.523Z,8.6
2018-11-28T00:54:13.560Z,8.6
2018-11-28T00:59:10.278Z,8.5
2018-11-28T01:19:42.469Z,8.3
2018-11-28T01:24:39.294Z,8.2
2018-11-28T01:29:36.041Z,8.1
2018-11-28T01:34:33.043Z,8.1
2018-11-28T01:39:29.325Z,8
2018-11-28T01:44:26.210Z,8
2018-11-28T01:49:23.175Z,7.9
2018-11-28T01:54:20.070Z,7.9
2018-11-28T01:59:17.107Z,7.2
2018-11-28T02:04:14.190Z,7.9
2018-11-28T02:09:10.826Z,8
2018-11-28T02:14:07.953Z,7.9
2018-11-28T02:19:05.167Z,7.7
2018-11-28T02:24:01.255Z,7.7
2018-11-28T02:28:58.291Z,7.7
2018-11-28T02:33:55.404Z,7.5
2018-11-28T02:38:52.077Z,7
2018-11-28T02:43:48.964Z,7.4
2018-11-28T02:48:45.726Z,7.2
2018-11-28T02:53:42.567Z,7
2018-11-28T02:58:39.629Z,6.2
2018-11-28T03:03:36.441Z,6.7
2018-11-28T03:08:33.201Z,6
2018-11-28T03:13:29.975Z,6
2018-11-28T03:18:26.971Z,5.9
2018-11-28T03:23:24.069Z,6.5
2018-11-28T03:28:21.025Z,6.2
2018-11-28T03:33:17.669Z,5.6
2018-11-28T03:38:14.632Z,6.1
2018-11-28T03:43:11.350Z,6
2018-11-28T03:48:08.182Z,5.9
2018-11-28T03:53:04.826Z,5.7
2018-11-28T03:58:01.753Z,5.8
2018-11-28T04:02:58.487Z,5.7
2018-11-28T04:07:56.161Z,5.6
2018-11-28T04:12:52.859Z,5.7
2018-11-28T04:17:49.698Z,5.3
2018-11-28T04:22:46.575Z,5.4
2018-11-28T04:27:43.526Z,5.4
2018-11-28T04:32:40.435Z,5.2
2018-11-28T04:37:37.263Z,5.4
2018-11-28T04:42:33.975Z,5.4
2018-11-28T04:47:30.941Z,5.5
2018-11-28T04:52:27.658Z,5.5
2018-11-28T04:57:24.963Z,5.6
2018-11-28T05:02:22.076Z,5.4
2018-11-28T05:07:18.928Z,4.9
2018-11-28T05:12:15.765Z,5.4
2018-11-28T05:17:13.172Z,5.3
2018-11-28T05:22:09.828Z,5.4
2018-11-28T05:27:06.678Z,5.4
2018-11-28T05:32:03.537Z,5.4
2018-11-28T05:37:00.215Z,5.5
2018-11-28T05:41:57.046Z,5.3
2018-11-28T05:46:54.134Z,5.3
2018-11-28T05:51:51.046Z,5.5
2018-11-28T05:56:48.258Z,5.6
2018-11-28T06:01:45.199Z,5.7
2018-11-28T06:06:42.136Z,5.8
2018-11-28T06:11:39.134Z,5.7
2018-11-28T06:16:36.137Z,5.6
2018-11-28T06:21:32.969Z,5.5
2018-11-28T06:26:29.464Z,5
2018-11-28T06:31:26.486Z,5.5
2018-11-28T06:36:23.393Z,5.5
2018-11-28T06:41:20.057Z,5.5
2018-11-28T06:46:16.843Z,5.5
2018-11-28T06:51:13.641Z,5.3
2018-11-28T06:56:11.109Z,5.2
2018-11-28T07:01:08.124Z,5.3
2018-11-28T07:06:04.823Z,5.2
2018-11-28T07:11:01.630Z,5.2
2018-11-28T07:15:58.558Z,5.1
2018-11-28T07:20:55.256Z,5.2
2018-11-28T07:25:52.041Z,5.2
2018-11-28T07:30:48.893Z,5.1
2018-11-28T07:35:45.770Z,5.2
2018-11-28T07:40:42.607Z,5.2
2018-11-28T07:45:39.397Z,5.3
2018-11-28T07:50:35.866Z,5.2
2018-11-28T07:55:32.762Z,5.2
2018-11-28T08:00:30.319Z,5.3
2018-11-28T08:05:28.110Z,5
2018-11-28T08:10:24.010Z,5.2
2018-11-28T08:15:20.709Z,5.2
2018-11-28T08:20:17.950Z,5.1
2018-11-28T08:25:14.329Z,5
2018-11-28T08:30:10.886Z,5.1
2018-11-28T08:35:07.365Z,5.1
2018-11-28T08:40:04.168Z,5.1
2018-11-28T08:45:00.291Z,5.1
2018-11-28T08:49:57.251Z,5
2018-11-28T08:54:54.221Z,5.1
2018-11-28T08:59:51.482Z,4.9
2018-11-28T09:04:48.195Z,4.9
2018-11-28T09:09:44.692Z,3.7
2018-11-28T09:14:40.663Z,4.8
2018-11-28T09:19:37.270Z,4.8
2018-11-28T09:24:30.544Z,4.8
2018-11-28T09:29:27.450Z,4.8
2018-11-28T09:34:24.283Z,4.7
2018-11-28T09:39:21.268Z,4.7
2018-11-28T09:49:15.142Z,4.7
2018-11-28T09:54:12.026Z,4.6
2018-11-28T09:59:09.608Z,4.6
2018-11-28T10:04:06.297Z,4.5
2018-11-28T10:09:02.727Z,4.6
2018-11-28T10:13:59.502Z,4.7
2018-11-28T10:18:56.278Z,4.6
2018-11-28T10:23:53.004Z,4.5
2018-11-28T10:28:49.389Z,4.7
2018-11-28T10:33:46.337Z,4.5
2018-11-28T10:38:42.823Z,4.5
2018-11-28T10:43:39.617Z,4.6
2018-11-28T10:48:36.343Z,4.5
2018-11-28T10:53:33.221Z,4.2
2018-11-28T10:58:30.367Z,4.5
2018-11-28T11:03:27.320Z,4.5
2018-11-28T11:08:24.324Z,4.6
2018-11-28T11:18:18.052Z,4.4
2018-11-28T11:23:14.764Z,4.3
2018-11-28T11:28:11.676Z,4.3
2018-11-28T11:33:08.238Z,4.3
2018-11-28T11:38:04.960Z,4.3
2018-11-28T11:43:01.738Z,4.4
2018-11-28T11:47:58.673Z,4.4
2018-11-28T11:52:55.198Z,4.4
2018-11-28T12:02:48.934Z,4.3
2018-11-28T12:07:45.652Z,4.3
2018-11-28T12:12:42.380Z,4.4
2018-11-28T12:17:39.621Z,4.4
2018-11-28T12:22:36.025Z,4.4
2018-11-28T12:27:32.497Z,4.4
2018-11-28T12:32:29.589Z,4.4
2018-11-28T12:37:26.405Z,4.3
2018-11-28T12:42:23.415Z,4.3
2018-11-28T12:47:20.191Z,4.3
2018-11-28T12:52:17.298Z,4.2
2018-11-28T12:57:14.033Z,4.2
2018-11-28T13:02:10.652Z,4.2
2018-11-28T13:07:07.560Z,4.2
2018-11-28T13:12:04.258Z,4.1
2018-11-28T13:17:01.084Z,4.2
2018-11-28T13:21:58.041Z,4.1
2018-11-28T13:26:54.399Z,3.9
2018-11-28T13:31:51.737Z,3.9
2018-11-28T13:36:48.477Z,3.9
2018-11-28T13:41:45.409Z,4
2018-11-28T13:46:41.833Z,4
2018-11-28T13:51:38.915Z,3.8
2018-11-28T14:01:32.289Z,3.3
2018-11-28T14:06:29.264Z,3.7
2018-11-28T14:11:26.085Z,3.7
2018-11-28T14:16:22.924Z,3.6
2018-11-28T14:21:19.737Z,3.6
2018-11-28T14:26:16.672Z,3.4
2018-11-28T14:31:13.636Z,3.5
2018-11-28T14:36:10.085Z,3.4
2018-11-28T14:41:07.187Z,3.4
2018-11-28T14:46:03.673Z,3.3
2018-11-28T14:51:00.789Z,3.2
2018-11-28T14:55:57.216Z,3.2
2018-11-28T15:00:54.143Z,3.2
2018-11-28T15:05:50.380Z,3.1
2018-11-28T15:10:48.438Z,2.7
2018-11-28T15:15:45.625Z,3
2018-11-28T15:20:42.496Z,2.9
2018-11-28T15:25:39.280Z,3
2018-11-28T15:30:36.011Z,3
2018-11-28T15:35:32.858Z,3
2018-11-28T15:40:29.620Z,3
2018-11-28T15:45:27.128Z,3
2018-11-28T15:50:24.599Z,3
2018-11-28T15:55:21.191Z,3
2018-11-28T16:00:18.305Z,2.8
2018-11-28T16:05:15.227Z,2.8
2018-11-28T16:10:11.536Z,2.8
2018-11-28T16:15:08.135Z,2.6
2018-11-28T16:20:05.118Z,2.7
2018-11-28T16:25:01.962Z,2.7
2018-11-28T16:29:58.513Z,2.7
2018-11-28T16:34:55.435Z,2.7
2018-11-28T16:39:52.175Z,2.8
2018-11-28T16:44:48.843Z,2.7
2018-11-28T16:49:46.019Z,2.8
2018-11-28T16:54:42.871Z,2.8
2018-11-28T16:59:39.489Z,2.8
2018-11-28T17:04:36.129Z,2.8
2018-11-28T17:09:33.042Z,2.8
2018-11-28T17:14:29.773Z,2.7
2018-11-28T17:19:26.561Z,2.7
2018-11-28T17:24:23.503Z,2.6
2018-11-28T17:29:20.489Z,2.5
2018-11-28T17:34:17.048Z,2.6
2018-11-28T17:39:13.792Z,2.5
2018-11-28T17:44:10.546Z,2.5
2018-11-28T17:49:07.726Z,2.6
2018-11-28T17:54:04.727Z,2.5
2018-11-28T17:59:01.622Z,2.5
2018-11-28T18:03:58.205Z,2.5
2018-11-28T18:08:55.850Z,2.5
2018-11-28T18:13:52.487Z,2.5
2018-11-28T18:18:49.281Z,2.5
2018-11-28T18:23:46.365Z,2.5
2018-11-28T18:28:43.345Z,2.5
2018-11-28T18:33:40.348Z,2.5
2018-11-28T18:38:38.867Z,2.5
2018-11-28T18:43:35.946Z,2.5
2018-11-28T18:48:32.335Z,2.4
2018-11-28T18:53:29.159Z,1.9
2018-11-28T18:58:26.195Z,2.5
2018-11-28T19:08:19.930Z,2.5
2018-11-28T19:13:18.151Z,2.6
2018-11-28T19:18:13.826Z,2.6
2018-11-28T19:23:11.450Z,2.4
2018-11-28T19:28:08.168Z,2.5
2018-11-28T19:33:04.964Z,2.4
2018-11-28T19:38:01.754Z,2.5
2018-11-28T19:42:58.251Z,2.5
2018-11-28T19:47:55.072Z,2.4
2018-11-28T19:52:51.716Z,2.4
2018-11-28T19:57:48.699Z,2.3
2018-11-28T20:02:45.595Z,2.4
2018-11-28T20:07:42.483Z,2.3
2018-11-28T20:12:39.309Z,2.3
2018-11-28T20:17:36.251Z,2.3
2018-11-28T20:22:33.252Z,2.1
2018-11-28T20:27:29.898Z,2.1
2018-11-28T20:32:26.660Z,2.2
2018-11-28T20:37:23.364Z,2.2
2018-11-28T20:42:19.946Z,2.1
2018-11-28T20:47:16.648Z,2
2018-11-28T20:52:13.211Z,2
2018-11-28T20:57:09.699Z,1.9
2018-11-28T21:02:06.788Z,1.9
2018-11-28T21:07:03.484Z,1.9
2018-11-28T21:12:00.354Z,1.8
2018-11-28T21:16:57.470Z,1.8
2018-11-28T21:21:54.156Z,1.7
2018-11-28T21:26:51.065Z,1.7
2018-11-28T21:31:47.762Z,1.7
2018-11-28T21:36:44.586Z,1.6
2018-11-28T21:41:41.288Z,1.5
2018-11-28T21:46:37.997Z,1.5
2018-11-28T21:51:34.728Z,1.5
2018-11-28T21:56:31.752Z,1
2018-11-28T22:01:28.680Z,1.5
2018-11-28T22:06:26.163Z,1.4
2018-11-28T22:11:22.825Z,1.4
2018-11-28T22:16:19.664Z,1.4
2018-11-28T22:21:16.203Z,1.4
2018-11-28T22:26:12.596Z,1.4
2018-11-28T22:31:09.141Z,1.3
2018-11-28T22:36:05.858Z,1.4
2018-11-28T22:41:02.617Z,1.3
2018-11-28T22:45:59.360Z,1.4
2018-11-28T22:50:56.274Z,1.3
2018-11-28T22:55:53.119Z,1.1
2018-11-28T23:00:49.743Z,1.2
2018-11-28T23:05:46.560Z,1.1
2018-11-28T23:10:43.380Z,1.1
2018-11-28T23:15:40.089Z,1.1
2018-11-28T23:20:36.959Z,1
2018-11-28T23:25:33.745Z,1.1
2018-11-28T23:30:30.202Z,1.1
2018-11-28T23:35:26.900Z,1
2018-11-28T23:40:23.751Z,1
2018-11-28T23:45:20.803Z,0.9
2018-11-28T23:50:17.554Z,1
2018-11-28T23:55:14.857Z,1
